Time;durP1;ratioP1;P1;durP2;ratioP2;P2;SDS_P1;SDS_P2;PMS_P1;PMS_P2;Temp;Humidity;BMP_temperature;BMP_pressure;BME280_temperature;BME280_humidity;BME280_pressure;Samples;Min_cycle;Max_cycle;Signal;HPM_P1;HPM_P2
2023/04/08 00:01:47;;;;;;;32.42;20.20;;;5.70;99.90;;;;;;5008053;28;20426;-83
2023/04/08 00:04:13;;;;;;;33.72;23.52;;;5.70;99.90;;;;;;4992850;28;20026;-83
2023/04/08 00:06:39;;;;;;;35.33;24.35;;;5.60;99.90;;;;;;5009845;28;20046;-83
2023/04/08 00:09:04;;;;;;;40.72;26.90;;;7.20;99.90;;;;;;4991236;28;20031;-82
2023/04/08 00:11:30;;;;;;;43.25;29.25;;;5.60;99.90;;;;;;4990980;28;20023;-82
2023/04/08 00:13:56;;;;;;;45.30;28.65;;;5.60;99.90;;;;;;5006768;28;20371;-81
2023/04/08 00:16:21;;;;;;;44.58;29.73;;;5.60;99.90;;;;;;5007582;28;20029;-83
2023/04/08 00:18:48;;;;;;;41.05;28.67;;;7.50;99.90;;;;;;4990051;28;20073;-82
2023/04/08 00:21:16;;;;;;;47.63;31.98;;;5.60;99.90;;;;;;4989590;28;20081;-82
2023/04/08 00:23:42;;;;;;;44.63;29.67;;;5.50;99.90;;;;;;4987478;28;20027;-82
2023/04/08 00:26:08;;;;;;;47.10;30.17;;;6.70;99.90;;;;;;4988899;28;20030;-83
2023/04/08 00:28:34;;;;;;;46.97;30.80;;;5.60;99.90;;;;;;4988276;28;20045;-82
2023/04/08 00:31:06;;;;;;;48.95;32.35;;;6.20;99.90;;;;;;5003959;28;20034;-82
2023/04/08 00:36:55;;;;;;;50.90;31.17;;;5.50;99.90;;;;;;5003738;28;20076;-79
2023/04/08 00:39:45;;;;;;;49.72;33.17;;;5.40;99.90;;;;;;4985144;28;20034;-80
2023/04/08 00:42:11;;;;;;;55.53;34.63;;;5.30;99.90;;;;;;4999301;28;20034;-80
2023/04/08 00:44:37;;;;;;;56.67;34.47;;;5.30;99.90;;;;;;4983070;28;20367;-79
2023/04/08 00:47:03;;;;;;;52.05;33.03;;;5.30;99.90;;;;;;4983129;28;20034;-79
2023/04/08 00:49:30;;;;;;;52.28;34.08;;;5.30;99.90;;;;;;4983367;28;20078;-78
2023/04/08 00:51:57;;;;;;;59.70;35.33;;;5.20;99.90;;;;;;4982168;28;20478;-78
2023/04/08 00:54:23;;;;;;;54.05;34.45;;;5.20;99.90;;;;;;4998009;28;20533;-77
2023/04/08 00:56:49;;;;;;;53.55;33.58;;;5.20;99.90;;;;;;4998972;28;20105;-77
2023/04/08 00:59:16;;;;;;;54.28;34.17;;;5.20;99.90;;;;;;5000630;28;20027;-78
2023/04/08 01:01:56;;;;;;;53.58;34.08;;;5.80;99.90;;;;;;5002939;28;20058;-77
2023/04/08 01:04:31;;;;;;;50.35;32.50;;;5.20;99.90;;;;;;4990436;28;20040;-78
2023/04/08 01:07:03;;;;;;;57.20;33.80;;;5.30;99.90;;;;;;4990319;28;20057;-78
2023/04/08 01:09:34;;;;;;;51.35;32.42;;;5.30;99.90;;;;;;4990001;28;20030;-78
2023/04/08 01:12:05;;;;;;;28.67;18.83;;;5.30;99.90;;;;;;5007889;28;20057;-78
2023/04/08 01:14:37;;;;;;;25.55;15.68;;;5.20;99.90;;;;;;5005096;28;20023;-77
2023/04/08 01:17:04;;;;;;;17.50;12.35;;;5.00;99.90;;;;;;4984220;28;20065;-77
2023/04/08 01:19:37;;;;;;;21.90;12.63;;;4.90;99.90;;;;;;4983766;28;20049;-77
2023/04/08 01:22:26;;;;;;;17.50;11.35;;;4.90;99.90;;;;;;4984431;28;20023;-77
2023/04/08 01:25:00;;;;;;;15.25;10.90;;;4.80;99.90;;;;;;4984085;28;20117;-77
2023/04/08 01:27:29;;;;;;;14.25;10.35;;;4.70;99.90;;;;;;5000577;28;20126;-76
2023/04/08 01:29:55;;;;;;;15.88;9.70;;;4.70;99.90;;;;;;4983418;28;20030;-77
2023/04/08 01:32:22;;;;;;;12.90;8.88;;;4.60;99.90;;;;;;4983577;28;20625;-76
2023/04/08 01:52:17;;;;;;;12.45;8.75;;;3.70;99.90;;;;;;4998356;28;20113;-77
2023/04/08 02:01:34;;;;;;;13.00;8.60;;;3.60;99.90;;;;;;4997969;28;20422;-78
2023/04/08 02:08:31;;;;;;;11.82;7.88;;;3.60;99.90;;;;;;4997600;28;20057;-78
2023/04/08 02:14:58;;;;;;;12.43;7.35;;;3.60;99.90;;;;;;4997023;28;20129;-79
2023/04/08 02:31:31;;;;;;;10.93;7.88;;;3.70;99.90;;;;;;4957490;29;20031;-79
2023/04/08 02:37:30;;;;;;;11.55;7.88;;;3.70;99.90;;;;;;4957985;29;20093;-81
2023/04/08 02:46:55;;;;;;;12.75;9.18;;;3.80;99.90;;;;;;4957746;29;20067;-80
2023/04/08 02:52:45;;;;;;;15.38;9.85;;;3.80;99.90;;;;;;4957483;29;20025;-81
2023/04/08 03:02:16;;;;;;;12.50;8.32;;;3.80;99.90;;;;;;4997458;28;20034;-80
2023/04/08 03:08:10;;;;;;;11.73;8.10;;;3.70;99.90;;;;;;4996660;28;20058;-80
2023/04/08 03:14:12;;;;;;;12.65;8.50;;;3.60;99.90;;;;;;4997446;28;20046;-80
2023/04/08 03:20:03;;;;;;;11.88;8.77;;;3.50;99.90;;;;;;4997219;28;20084;-80
2023/04/08 03:26:11;;;;;;;9.52;7.25;;;3.50;99.90;;;;;;4996893;28;20021;-80
2023/04/08 03:32:58;;;;;;;10.95;7.38;;;3.40;99.90;;;;;;4996417;28;20037;-79
2023/04/08 03:36:11;;;;;;;9.23;6.47;;;3.50;99.90;;;;;;4979596;28;20034;-79
2023/04/08 03:38:37;;;;;;;10.20;7.35;;;3.40;99.90;;;;;;4979768;28;20367;-80
2023/04/08 03:41:02;;;;;;;9.95;7.25;;;3.50;99.90;;;;;;4979746;28;20027;-79
2023/04/08 03:50:57;;;;;;;9.05;6.45;;;3.10;99.90;;;;;;4995407;28;20479;-79
2023/04/08 03:53:23;;;;;;;8.38;6.25;;;3.00;99.90;;;;;;4978527;28;20450;-78
2023/04/08 03:55:51;;;;;;;9.77;6.82;;;3.00;99.90;;;;;;4979319;28;20033;-79
2023/04/08 04:01:53;;;;;;;8.77;6.13;;;2.80;99.90;;;;;;4995969;28;20021;-79
2023/04/08 04:08:16;;;;;;;11.50;7.63;;;2.70;99.90;;;;;;4995483;28;20061;-79
2023/04/08 04:11:06;;;;;;;12.13;7.68;;;2.60;99.90;;;;;;4978410;28;20471;-79
2023/04/08 04:13:32;;;;;;;8.68;6.85;;;2.60;99.90;;;;;;4977899;28;20031;-79
2023/04/08 04:15:57;;;;;;;10.55;7.38;;;2.40;99.90;;;;;;4978130;28;20027;-79
2023/04/08 04:18:37;;;;;;;10.20;7.20;;;2.40;99.90;;;;;;4995972;28;20027;-79
2023/04/08 04:24:25;;;;;;;13.90;8.02;;;2.30;99.90;;;;;;4995245;28;20426;-80
2023/04/08 04:30:42;;;;;;;12.43;6.75;;;2.20;99.90;;;;;;4995133;28;20121;-80
2023/04/08 04:33:08;;;;;;;10.07;6.97;;;2.20;99.90;;;;;;4994945;28;20022;-79
2023/04/08 04:35:34;;;;;;;11.63;6.82;;;2.10;99.90;;;;;;4978488;28;20026;-80
2023/04/08 04:38:00;;;;;;;11.77;7.20;;;2.20;99.90;;;;;;4977590;28;20041;-80
2023/04/08 04:41:03;;;;;;;11.52;7.78;;;2.20;99.90;;;;;;4978174;28;20041;-81
2023/04/08 04:46:55;;;;;;;12.90;8.25;;;2.20;99.90;;;;;;4994914;28;20049;-80
2023/04/08 04:53:04;;;;;;;10.57;6.93;;;2.10;99.90;;;;;;4995399;28;20034;-79
2023/04/08 04:59:07;;;;;;;10.55;7.22;;;2.00;99.90;;;;;;4995076;28;20032;-80
2023/04/08 05:01:34;;;;;;;9.25;6.40;;;2.30;99.90;;;;;;4978258;28;20030;-80
2023/04/08 05:03:59;;;;;;;12.10;7.65;;;2.00;99.90;;;;;;4995004;28;20031;-80
2023/04/08 05:06:26;;;;;;;12.13;7.88;;;2.00;99.90;;;;;;4977874;28;20481;-80
2023/04/08 05:09:28;;;;;;;10.57;7.20;;;2.00;99.90;;;;;;4994868;28;20038;-80
2023/04/08 05:11:53;;;;;;;11.13;7.15;;;2.00;99.90;;;;;;4995031;28;20058;-80
2023/04/08 05:14:19;;;;;;;10.95;7.38;;;2.00;99.90;;;;;;4994816;28;20108;-80
2023/04/08 05:16:45;;;;;;;9.43;7.25;;;2.00;99.90;;;;;;4977995;28;20039;-80
2023/04/08 05:19:10;;;;;;;11.02;7.28;;;2.00;99.90;;;;;;4978079;28;20084;-80
2023/04/08 05:21:58;;;;;;;8.55;6.20;;;2.00;99.90;;;;;;4977441;28;20455;-79
2023/04/08 05:31:15;;;;;;;8.98;6.43;;;2.10;99.90;;;;;;4994112;28;20030;-81
2023/04/08 05:33:59;;;;;;;;;;;3.30;99.90;;;;;;4978671;28;20518;-81
2023/04/08 05:36:26;;;;;;;8.90;6.40;;;2.30;99.90;;;;;;4978839;28;19906;-82
2023/04/08 05:38:51;;;;;;;9.85;6.95;;;3.80;99.90;;;;;;4996588;28;20030;-82
2023/04/08 05:41:17;;;;;;;14.32;8.45;;;4.00;99.90;;;;;;4997353;28;20064;-82
2023/04/08 05:43:42;;;;;;;13.07;8.52;;;2.50;99.90;;;;;;4980055;28;20425;-82
2023/04/08 05:46:09;;;;;;;11.85;8.02;;;2.50;99.90;;;;;;4998877;28;20026;-82
2023/04/08 05:48:35;;;;;;;12.95;8.27;;;2.50;99.90;;;;;;4983143;28;20054;-82
2023/04/08 05:51:02;;;;;;;11.52;8.38;;;2.60;99.90;;;;;;5002859;28;20050;-82
2023/04/08 05:53:27;;;;;;;12.80;8.60;;;2.60;99.90;;;;;;5002245;28;20054;-82
2023/04/08 05:55:53;;;;;;;11.05;7.88;;;3.70;99.90;;;;;;5001058;28;20398;-82
2023/04/08 05:58:19;;;;;;;12.52;7.78;;;2.80;99.90;;;;;;5001459;28;20061;-82
2023/04/08 06:00:45;;;;;;;12.95;8.80;;;2.60;99.90;;;;;;4987500;28;20360;-73
2023/04/08 06:03:10;;;;;;;10.50;7.07;;;2.60;99.90;;;;;;5006544;28;20026;-82
2023/04/08 06:05:36;;;;;;;10.05;7.38;;;3.80;99.90;;;;;;4991615;28;20033;-82
2023/04/08 06:10:37;;;;;;;9.95;7.15;;;2.60;99.90;;;;;;5267626;23;20076;-79
2023/04/08 06:13:03;;;;;;;9.93;7.30;;;2.50;99.90;;;;;;5023587;28;20030;-78
2023/04/08 06:15:29;;;;;;;10.65;8.15;;;2.50;99.90;;;;;;5004244;28;20057;-62
2023/04/08 06:17:54;;;;;;;12.27;8.48;;;2.50;99.90;;;;;;5003702;28;20124;-80
2023/04/08 06:20:20;;;;;;;13.55;8.98;;;2.60;99.90;;;;;;5032611;28;20030;-84
2023/04/08 06:22:46;;;;;;;12.57;8.32;;;2.70;99.90;;;;;;5030069;28;20032;-83
2023/04/08 06:25:11;;;;;;;16.70;10.68;;;2.70;99.90;;;;;;5027275;28;20454;-82
2023/04/08 06:27:37;;;;;;;16.02;10.05;;;3.50;99.90;;;;;;5019548;28;20022;-82
2023/04/08 06:30:03;;;;;;;13.68;8.63;;;3.10;99.90;;;;;;5026277;28;20033;-75
2023/04/08 06:32:28;;;;;;;15.65;10.77;;;2.80;99.90;;;;;;5015486;28;20030;-58
2023/04/08 06:34:54;;;;;;;14.95;10.85;;;2.80;99.90;;;;;;5015054;28;20596;-60
2023/04/08 06:37:20;;;;;;;16.88;10.88;;;2.80;99.90;;;;;;5010643;28;20049;-59
2023/04/08 06:39:46;;;;;;;17.35;11.50;;;2.80;99.90;;;;;;4998259;28;20053;-80
2023/04/08 06:42:12;;;;;;;17.52;12.73;;;2.90;99.90;;;;;;5011586;28;20022;-81
2023/04/08 06:44:37;;;;;;;16.75;11.43;;;2.90;99.90;;;;;;5001205;28;20076;-79
2023/04/08 06:47:04;;;;;;;21.30;12.93;;;3.00;99.90;;;;;;5017683;28;20064;-79
2023/04/08 06:49:30;;;;;;;19.52;12.18;;;3.00;99.90;;;;;;5000355;28;20038;-78
2023/04/08 06:51:56;;;;;;;18.52;12.70;;;3.00;99.90;;;;;;5000155;28;20134;-79
2023/04/08 06:54:21;;;;;;;18.42;12.93;;;3.00;99.90;;;;;;5000412;28;20026;-79
2023/04/08 06:56:47;;;;;;;22.33;14.05;;;3.10;99.90;;;;;;5017304;28;20030;-79
2023/04/08 06:59:13;;;;;;;20.17;12.75;;;3.10;99.90;;;;;;4999378;28;20036;-79
2023/04/08 07:01:38;;;;;;;19.60;13.63;;;3.10;99.90;;;;;;5017686;28;20026;-79
2023/04/08 07:04:04;;;;;;;20.58;13.18;;;3.10;99.90;;;;;;5005707;28;20029;-78
2023/04/08 07:06:30;;;;;;;19.90;13.20;;;3.00;99.90;;;;;;5006223;28;20160;-77
2023/04/08 07:08:55;;;;;;;22.60;15.15;;;3.10;99.90;;;;;;5004720;28;20070;-75
2023/04/08 07:11:21;;;;;;;24.25;15.18;;;3.20;99.90;;;;;;5021222;28;20057;-77
2023/04/08 07:13:47;;;;;;;22.27;13.68;;;3.20;99.90;;;;;;5001272;28;20026;-77
2023/04/08 07:16:12;;;;;;;21.88;13.75;;;3.30;99.90;;;;;;5002241;28;20100;-76
2023/04/08 07:18:40;;;;;;;21.20;14.73;;;3.30;99.90;;;;;;5000847;28;20030;-76
2023/04/08 07:21:06;;;;;;;20.77;13.90;;;3.30;99.90;;;;;;5000337;28;20026;-76
2023/04/08 07:23:31;;;;;;;22.20;13.75;;;3.40;99.90;;;;;;5019862;28;20446;-77
2023/04/08 07:26:03;;;;;;;21.83;14.23;;;3.50;99.90;;;;;;5002694;28;20030;-79
2023/04/08 07:28:28;;;;;;;20.88;13.50;;;3.60;99.90;;;;;;5019844;28;20470;-77
2023/04/08 07:30:54;;;;;;;23.48;13.48;;;3.70;99.90;;;;;;5018822;28;20045;-78
2023/04/08 07:33:19;;;;;;;19.58;11.85;;;3.70;99.90;;;;;;5001138;28;20116;-76
2023/04/08 07:35:45;;;;;;;18.42;12.07;;;3.70;99.90;;;;;;5020899;28;20101;-79
2023/04/08 07:38:12;;;;;;;19.50;12.00;;;3.70;99.90;;;;;;5017791;28;20114;-80
2023/04/08 07:40:38;;;;;;;19.42;12.65;;;3.70;99.90;;;;;;5018460;28;20022;-81
2023/04/08 07:43:13;;;;;;;17.45;12.98;;;3.70;99.90;;;;;;5001006;28;20076;-80
2023/04/08 07:45:39;;;;;;;17.90;11.35;;;3.80;99.90;;;;;;5017142;28;20463;-79
2023/04/08 07:48:05;;;;;;;17.17;12.32;;;3.90;99.90;;;;;;4999525;28;20040;-80
2023/04/08 07:50:31;;;;;;;15.57;10.70;;;;;;;;;;5072867;23;20054;-84
2023/04/08 07:52:57;;;;;;;15.88;10.98;;;;;;;;;;5027019;28;20026;-83
2023/04/08 07:55:23;;;;;;;16.85;11.30;;;;;;;;;;5019244;28;20026;-80
2023/04/08 08:00:22;;;;;;;13.70;8.75;;;;;;;;;;5007737;28;20077;-81
2023/04/08 08:05:24;;;;;;;13.20;9.60;;;;;;;;;;5421917;23;20062;-81
2023/04/08 08:07:50;;;;;;;10.73;7.97;;;;;;;;;;4989187;28;20117;-81
2023/04/08 08:10:15;;;;;;;13.65;8.70;;;4.30;99.90;;;;;;5004565;28;20026;-81
2023/04/08 08:12:41;;;;;;;12.23;8.10;;;;;;;;;;4993865;28;20026;-83
2023/04/08 08:15:08;;;;;;;10.15;7.93;;;4.40;99.90;;;;;;5009222;28;20034;-83
2023/04/08 08:17:34;;;;;;;8.70;6.80;;;4.40;99.90;;;;;;4992776;28;20027;-81
2023/04/08 08:20:00;;;;;;;8.20;6.38;;;4.40;99.90;;;;;;4999656;28;20027;-80
2023/04/08 08:22:26;;;;;;;10.98;7.40;;;4.50;99.90;;;;;;4967792;28;20427;-74
2023/04/08 08:24:58;;;;;;;9.40;6.78;;;4.50;99.90;;;;;;4990349;28;20348;-81
2023/04/08 08:27:24;;;;;;;8.68;6.13;;;4.60;99.90;;;;;;4967562;28;20026;-82
2023/04/08 08:29:51;;;;;;;9.20;5.30;;;4.60;99.90;;;;;;4971066;28;20038;-84
2023/04/08 08:32:17;;;;;;;6.18;4.75;;;4.60;99.90;;;;;;4966825;28;20082;-81
2023/04/08 08:34:42;;;;;;;9.13;5.50;;;4.50;99.90;;;;;;4961848;28;20027;-62
2023/04/08 08:37:08;;;;;;;6.82;5.28;;;4.50;99.90;;;;;;4975802;28;20034;-61
2023/04/08 08:39:34;;;;;;;9.18;4.97;;;4.50;99.90;;;;;;4975795;28;20082;-62
2023/04/08 08:41:59;;;;;;;7.50;5.72;;;4.50;99.90;;;;;;4975805;28;20026;-77
2023/04/08 08:44:26;;;;;;;9.15;6.25;;;4.50;99.90;;;;;;4959377;28;20034;-78
2023/04/08 08:46:52;;;;;;;7.10;5.60;;;4.50;99.90;;;;;;4959063;28;20031;-77
2023/04/08 08:49:18;;;;;;;9.45;6.28;;;4.60;99.90;;;;;;4959527;28;20031;-77
2023/04/08 08:51:46;;;;;;;7.30;5.60;;;4.70;99.90;;;;;;4959885;28;20463;-77
2023/04/08 08:54:12;;;;;;;10.38;6.13;;;4.70;99.90;;;;;;4960996;28;20034;-77
2023/04/08 08:56:37;;;;;;;8.23;6.20;;;4.80;99.90;;;;;;4977454;28;20026;-76
2023/04/08 08:59:03;;;;;;;9.48;6.03;;;4.90;99.90;;;;;;4961102;28;20034;-76
2023/04/08 09:01:33;;;;;;;8.88;6.10;;;5.00;99.90;;;;;;4978305;28;20109;-76
2023/04/08 09:04:11;;;;;;;9.45;7.10;;;5.00;99.90;;;;;;4960522;28;20069;-76
2023/04/08 09:06:37;;;;;;;9.23;6.73;;;5.10;99.90;;;;;;4962612;28;20023;-79
2023/04/08 09:09:09;;;;;;;8.38;6.00;;;5.10;99.90;;;;;;4961217;28;20390;-80
2023/04/08 09:11:37;;;;;;;9.73;6.95;;;5.00;99.90;;;;;;4975709;28;20038;-68
2023/04/08 09:14:03;;;;;;;11.82;7.20;;;5.10;99.90;;;;;;4974989;28;20027;-61
2023/04/08 09:16:30;;;;;;;9.43;6.20;;;5.20;99.90;;;;;;4974931;28;20027;-61
2023/04/08 09:19:08;;;;;;;10.75;6.85;;;5.20;99.90;;;;;;4974844;28;20027;-61
2023/04/08 09:21:34;;;;;;;;;;;5.10;99.90;;;;;;4975328;28;20344;-60
2023/04/08 09:24:00;;;;;;;7.40;6.10;;;5.10;99.90;;;;;;4982923;28;19961;-83
2023/04/08 09:26:26;;;;;;;9.82;6.65;;;5.00;99.90;;;;;;4990238;28;20031;-84
2023/04/08 09:29:08;;;;;;;8.70;6.45;;;5.00;99.90;;;;;;4977784;28;20039;-84
2023/04/08 09:31:46;;;;;;;18.30;7.05;;;5.00;99.90;;;;;;4976257;28;20031;-85
2023/04/08 09:34:20;;;;;;;10.20;6.97;;;5.10;99.90;;;;;;4975321;28;20045;-85
2023/04/08 09:36:48;;;;;;;10.57;7.32;;;5.10;99.90;;;;;;4992377;28;20027;-85
2023/04/08 09:39:14;;;;;;;8.98;6.40;;;5.10;99.90;;;;;;4976012;28;20031;-84
2023/04/08 09:41:41;;;;;;;9.38;6.45;;;5.20;99.90;;;;;;4990940;28;20046;-84
2023/04/08 09:44:08;;;;;;;8.27;6.10;;;5.30;99.90;;;;;;4975977;28;20037;-84
2023/04/08 09:46:49;;;;;;;7.65;6.05;;;5.40;99.90;;;;;;4994682;28;20078;-84
2023/04/08 09:49:27;;;;;;;9.18;6.18;;;5.40;99.90;;;;;;4978931;28;20034;-84
2023/04/08 09:52:09;;;;;;;7.72;6.07;;;5.40;99.90;;;;;;4996742;28;20031;-83
2023/04/08 09:54:54;;;;;;;8.38;6.03;;;5.40;99.90;;;;;;4997371;28;20023;-85
2023/04/08 09:57:57;;;;;;;9.90;6.43;;;5.30;99.90;;;;;;4982163;28;20023;-85
2023/04/08 10:00:37;;;;;;;10.93;7.50;;;5.30;99.90;;;;;;4998694;28;20027;-83
2023/04/08 10:03:13;;;;;;;9.35;6.20;;;5.10;99.90;;;;;;4998122;28;20031;-85
2023/04/08 10:05:40;;;;;;;9.40;6.63;;;5.10;99.90;;;;;;4997531;28;20111;-86
2023/04/08 10:08:06;;;;;;;9.85;6.47;;;5.10;99.90;;;;;;4981433;28;20035;-85
2023/04/08 10:10:38;;;;;;;11.02;7.60;;;5.10;99.90;;;;;;4981885;28;20484;-84
2023/04/08 10:13:05;;;;;;;9.00;6.70;;;6.40;99.90;;;;;;4979639;28;20102;-85
2023/04/08 10:15:32;;;;;;;9.93;6.72;;;6.10;99.90;;;;;;4996274;28;20026;-87
2023/04/08 10:18:06;;;;;;;9.30;6.50;;;5.00;99.90;;;;;;4996216;28;20030;-87
2023/04/08 10:20:35;;;;;;;11.85;7.50;;;5.00;99.90;;;;;;4980345;28;20035;-85
2023/04/08 10:23:01;;;;;;;10.77;8.00;;;5.10;99.90;;;;;;4980933;28;20023;-84
2023/04/08 10:25:32;;;;;;;11.60;7.35;;;5.10;99.90;;;;;;4998110;28;20023;-86
2023/04/08 10:28:02;;;;;;;9.35;6.60;;;5.00;99.90;;;;;;4982763;28;20035;-87
2023/04/08 10:30:30;;;;;;;11.05;7.28;;;;;;;;;;5798989;23;20034;-85
2023/04/08 10:45:54;;;;;;;11.40;7.60;;;;;;;;;;5053936;23;20037;-85
2023/04/08 10:48:23;;;;;;;14.15;7.80;;;5.00;99.90;;;;;;5275449;23;20042;-85
2023/04/08 10:50:53;;;;;;;13.93;7.68;;;4.90;99.90;;;;;;5019104;28;20018;-85
2023/04/08 10:53:34;;;;;;;14.38;7.80;;;4.90;99.90;;;;;;5333669;23;20053;-86
2023/04/08 10:56:05;;;;;;;12.48;7.00;;;4.80;99.90;;;;;;5018197;28;20034;-85
2023/04/08 10:58:32;;;;;;;14.07;7.97;;;;;;;;;;5015227;28;20022;-83
2023/04/08 11:01:07;;;;;;;12.82;7.13;;;4.80;99.90;;;;;;5010673;28;20063;-83
2023/04/08 11:03:34;;;;;;;13.05;7.80;;;4.80;99.90;;;;;;5026462;28;20018;-84
2023/04/08 11:06:01;;;;;;;20.00;8.55;;;4.80;99.90;;;;;;5029565;28;20058;-85
2023/04/08 11:08:31;;;;;;;16.63;8.55;;;4.90;99.90;;;;;;5008542;28;20555;-80
2023/04/08 11:11:01;;;;;;;16.90;8.23;;;4.70;99.90;;;;;;5004848;28;20029;-79
2023/04/08 11:13:27;;;;;;;19.00;9.40;;;4.80;99.90;;;;;;5021488;28;20026;-78
2023/04/08 11:15:54;;;;;;;19.55;9.52;;;4.80;99.90;;;;;;5004127;28;20473;-79
2023/04/08 11:18:21;;;;;;;15.02;7.80;;;4.80;99.90;;;;;;5020798;28;20026;-78
2023/04/08 11:20:50;;;;;;;16.98;8.38;;;4.80;99.90;;;;;;5021760;28;20026;-79
2023/04/08 11:23:16;;;;;;;18.50;9.90;;;4.90;99.90;;;;;;5022340;28;20363;-79
2023/04/08 11:25:43;;;;;;;16.90;8.18;;;5.00;99.90;;;;;;5003912;28;20029;-79
2023/04/08 11:28:10;;;;;;;17.15;8.90;;;5.00;99.90;;;;;;5021605;28;20037;-78
2023/04/08 11:30:39;;;;;;;16.20;9.13;;;6.00;99.90;;;;;;5020836;28;20486;-79
2023/04/08 11:33:05;;;;;;;8.77;5.57;;;5.20;99.90;;;;;;5020140;28;20582;-77
2023/04/08 11:35:30;;;;;;;14.07;7.80;;;5.20;99.90;;;;;;5003640;28;20034;-77
2023/04/08 11:37:57;;;;;;;15.25;8.25;;;5.10;99.90;;;;;;4996564;28;20438;-61
2023/04/08 11:40:23;;;;;;;13.75;7.93;;;5.10;99.90;;;;;;4995716;28;20062;-60
2023/04/08 11:42:50;;;;;;;13.90;8.85;;;5.10;99.90;;;;;;5010692;28;20030;-60
2023/04/08 11:45:18;;;;;;;17.23;8.35;;;5.20;99.90;;;;;;5015563;28;20064;-60
2023/04/08 11:47:44;;;;;;;15.65;8.93;;;5.20;99.90;;;;;;5011857;28;20034;-60
2023/04/08 11:50:10;;;;;;;14.18;7.97;;;5.20;99.90;;;;;;5014906;28;20088;-60
2023/04/08 11:52:42;;;;;;;11.75;7.85;;;5.10;99.90;;;;;;5015036;28;20037;-60
2023/04/08 11:55:10;;;;;;;12.82;7.10;;;5.10;99.90;;;;;;5014847;28;20518;-60
2023/04/08 11:57:36;;;;;;;14.13;7.43;;;5.00;99.90;;;;;;5015053;28;20030;-60
2023/04/08 12:00:04;;;;;;;14.43;7.90;;;5.00;99.90;;;;;;5015985;28;20268;-77
2023/04/08 12:02:30;;;;;;;13.75;7.53;;;5.00;99.90;;;;;;5016616;28;20485;-80
2023/04/08 12:04:56;;;;;;;15.45;8.27;;;5.00;99.90;;;;;;5001917;28;20030;-79
2023/04/08 12:07:21;;;;;;;14.35;7.40;;;4.90;99.90;;;;;;5004539;28;20381;-82
2023/04/08 12:09:47;;;;;;;12.68;7.57;;;5.80;99.90;;;;;;5019921;28;20057;-81
2023/04/08 12:12:13;;;;;;;12.45;7.55;;;5.00;99.90;;;;;;5000904;28;20053;-80
2023/04/08 12:14:38;;;;;;;14.48;7.78;;;6.30;99.90;;;;;;5001840;28;20033;-76
2023/04/08 12:17:04;;;;;;;12.45;7.15;;;5.10;99.90;;;;;;5001309;28;20117;-76
2023/04/08 12:19:29;;;;;;;11.95;7.35;;;5.20;99.90;;;;;;5001279;28;20521;-75
2023/04/08 12:21:55;;;;;;;12.55;7.38;;;5.20;99.90;;;;;;5018155;28;20030;-79
2023/04/08 12:24:21;;;;;;;12.18;7.82;;;5.50;99.90;;;;;;5016918;28;20029;-76
2023/04/08 12:26:46;;;;;;;12.52;7.90;;;6.30;99.90;;;;;;5018419;28;20026;-76
2023/04/08 12:29:12;;;;;;;13.35;8.20;;;5.30;99.90;;;;;;5017872;28;20062;-77
2023/04/08 12:31:38;;;;;;;14.20;8.63;;;5.40;99.90;;;;;;5001318;28;20539;-75
2023/04/08 12:34:03;;;;;;;13.65;8.38;;;5.40;99.90;;;;;;5018392;28;20436;-75
2023/04/08 12:36:30;;;;;;;15.57;9.00;;;5.40;99.90;;;;;;5017455;28;20021;-76
2023/04/08 12:38:56;;;;;;;15.82;9.27;;;5.40;99.90;;;;;;4999279;28;20033;-76
2023/04/08 12:41:21;;;;;;;17.15;9.98;;;5.40;99.90;;;;;;4999621;28;20032;-78
2023/04/08 12:43:47;;;;;;;18.02;9.80;;;5.40;99.90;;;;;;5016483;28;20114;-75
2023/04/08 12:46:13;;;;;;;16.05;9.85;;;5.40;99.90;;;;;;4999995;28;20022;-80
2023/04/08 12:48:38;;;;;;;18.50;10.23;;;5.30;99.90;;;;;;5016558;28;20034;-80
2023/04/08 12:51:04;;;;;;;16.40;9.73;;;5.30;99.90;;;;;;4999117;28;20124;-79
2023/04/08 12:53:30;;;;;;;17.65;9.55;;;5.20;99.90;;;;;;4998616;28;20054;-81
2023/04/08 12:55:56;;;;;;;16.80;9.88;;;5.30;99.90;;;;;;5001413;28;20037;-82
2023/04/08 12:58:24;;;;;;;20.63;11.55;;;5.20;99.90;;;;;;5015957;28;20025;-80
2023/04/08 13:00:50;;;;;;;20.27;11.35;;;5.20;99.90;;;;;;5016050;28;20084;-77
2023/04/08 13:03:16;;;;;;;18.85;11.57;;;5.20;99.90;;;;;;5016195;28;20382;-78
2023/04/08 13:05:43;;;;;;;20.30;11.57;;;5.10;99.90;;;;;;5016340;28;20451;-78
2023/04/08 13:08:10;;;;;;;20.73;12.48;;;5.10;99.90;;;;;;4998211;28;20470;-77
2023/04/08 13:10:36;;;;;;;21.80;12.25;;;5.10;99.90;;;;;;5015891;28;20525;-78
2023/04/08 13:13:02;;;;;;;20.08;11.77;;;5.10;99.90;;;;;;4999188;28;20030;-79
2023/04/08 13:15:27;;;;;;;21.30;12.90;;;5.10;99.90;;;;;;5000390;28;20029;-80
2023/04/08 13:17:53;;;;;;;24.45;12.80;;;5.10;99.90;;;;;;4999025;28;20068;-82
2023/04/08 13:20:19;;;;;;;20.70;11.95;;;5.30;99.90;;;;;;5015470;28;20370;-80
2023/04/08 13:22:45;;;;;;;19.90;11.85;;;5.40;99.90;;;;;;4998397;28;20061;-81
2023/04/08 13:25:11;;;;;;;18.25;11.35;;;5.50;99.90;;;;;;5015433;28;20030;-77
2023/04/08 13:27:37;;;;;;;20.48;11.73;;;5.50;99.90;;;;;;4997961;28;20041;-76
2023/04/08 13:30:02;;;;;;;18.23;10.82;;;5.50;99.90;;;;;;4997577;28;20030;-79
2023/04/08 13:32:28;;;;;;;20.60;11.65;;;5.60;99.90;;;;;;4998370;28;20038;-79
2023/04/08 13:34:54;;;;;;;18.00;11.48;;;5.60;99.90;;;;;;5018866;28;20018;-79
2023/04/08 13:37:20;;;;;;;21.20;12.77;;;5.60;99.90;;;;;;5020943;28;20034;-80
2023/04/08 13:39:45;;;;;;;18.70;11.35;;;5.70;99.90;;;;;;5004042;28;20037;-80
2023/04/08 13:42:11;;;;;;;19.92;11.93;;;6.50;99.90;;;;;;5020366;28;20164;-78
2023/04/08 13:44:37;;;;;;;19.08;10.95;;;5.60;99.90;;;;;;5021010;28;20042;-77
2023/04/08 13:47:02;;;;;;;18.15;11.07;;;5.60;99.90;;;;;;5002614;28;20091;-79
2023/04/08 13:49:28;;;;;;;18.63;10.98;;;5.60;99.90;;;;;;5001611;28;20041;-78
2023/04/08 13:51:54;;;;;;;21.38;12.70;;;5.60;99.90;;;;;;5020221;28;20441;-77
2023/04/08 13:54:19;;;;;;;24.38;13.02;;;5.60;99.90;;;;;;5019995;28;20054;-78
2023/04/08 13:56:45;;;;;;;17.67;10.95;;;5.60;99.90;;;;;;5020756;28;20030;-78
2023/04/08 13:59:11;;;;;;;20.48;12.30;;;5.60;99.90;;;;;;5020023;28;20393;-79
2023/04/08 14:01:36;;;;;;;18.17;10.32;;;5.60;99.90;;;;;;5004274;28;20525;-79
2023/04/08 14:04:02;;;;;;;14.68;9.57;;;5.50;99.90;;;;;;5021186;28;20022;-80
2023/04/08 14:06:28;;;;;;;16.58;10.32;;;5.50;99.90;;;;;;5004847;28;20470;-77
2023/04/08 14:08:53;;;;;;;14.48;8.98;;;5.50;99.90;;;;;;5023843;28;20030;-78
2023/04/08 14:11:20;;;;;;;14.95;9.52;;;5.50;99.90;;;;;;5009035;28;20090;-83
2023/04/08 14:13:45;;;;;;;14.73;9.38;;;5.50;99.90;;;;;;5040582;23;20114;-86
2023/04/08 14:16:11;;;;;;;13.73;9.02;;;5.50;99.90;;;;;;4996120;28;20041;-85
2023/04/08 14:18:37;;;;;;;13.32;8.80;;;5.50;99.90;;;;;;5010608;28;20053;-82
2023/04/08 14:21:04;;;;;;;13.82;8.88;;;5.60;99.90;;;;;;4989100;28;20085;-84
2023/04/08 14:23:29;;;;;;;15.20;10.20;;;5.60;99.90;;;;;;5008099;28;20019;-83
2023/04/08 14:25:55;;;;;;;14.15;8.95;;;5.80;99.90;;;;;;5003277;28;20026;-76
2023/04/08 14:28:21;;;;;;;11.80;7.95;;;5.90;99.90;;;;;;5000232;28;20046;-79
2023/04/08 14:30:46;;;;;;;12.95;8.20;;;5.90;99.90;;;;;;5001064;28;20066;-76
2023/04/08 14:33:12;;;;;;;12.25;8.55;;;6.00;99.90;;;;;;5003009;28;20027;-87
2023/04/08 14:35:37;;;;;;;14.20;8.57;;;6.00;99.90;;;;;;5004427;28;20394;-77
2023/04/08 14:38:03;;;;;;;14.98;9.38;;;6.00;99.90;;;;;;5001962;28;20113;-79
2023/04/08 14:40:29;;;;;;;12.65;8.73;;;6.00;99.90;;;;;;5001528;28;20073;-79
2023/04/08 14:42:54;;;;;;;14.18;9.18;;;5.90;99.90;;;;;;4984418;28;20051;-79
2023/04/08 14:45:20;;;;;;;15.38;9.30;;;5.90;99.90;;;;;;5002579;28;20026;-80
2023/04/08 14:47:47;;;;;;;13.35;8.68;;;5.80;99.90;;;;;;4983759;28;20034;-79
2023/04/08 14:50:12;;;;;;;14.82;8.88;;;5.80;99.90;;;;;;5000471;28;20026;-79
2023/04/08 14:52:38;;;;;;;14.73;8.73;;;5.80;99.90;;;;;;5001243;28;20027;-79
2023/04/08 14:55:04;;;;;;;13.07;9.07;;;5.80;99.90;;;;;;5001757;28;20429;-77
2023/04/08 14:57:30;;;;;;;16.45;9.52;;;5.80;99.90;;;;;;4984236;28;20030;-79
2023/04/08 14:59:56;;;;;;;14.63;8.70;;;5.80;99.90;;;;;;4983686;28;20019;-75
2023/04/08 15:02:22;;;;;;;12.70;8.20;;;5.90;99.90;;;;;;5000198;28;20068;-79
2023/04/08 15:04:47;;;;;;;13.05;8.43;;;7.00;99.90;;;;;;4999955;28;20058;-77
2023/04/08 15:07:13;;;;;;;11.23;7.72;;;6.00;99.90;;;;;;4999599;28;20029;-79
2023/04/08 15:09:39;;;;;;;12.00;8.98;;;6.10;99.90;;;;;;4983215;28;20039;-79
2023/04/08 15:12:05;;;;;;;11.23;7.93;;;6.20;99.90;;;;;;4982157;28;20054;-79
2023/04/08 15:14:30;;;;;;;19.40;10.55;;;6.20;99.90;;;;;;4983063;28;20109;-80
2023/04/08 15:16:56;;;;;;;13.23;8.43;;;6.30;99.90;;;;;;5003561;28;20022;-80
2023/04/08 15:19:22;;;;;;;13.07;8.95;;;6.20;99.90;;;;;;5002368;28;20036;-82
2023/04/08 15:21:48;;;;;;;12.63;8.25;;;6.10;99.90;;;;;;4984244;28;20030;-83